Time,TemperatureF,DewpointF,PressureIn,WindDirection,WindDirectionDegrees,WindSpeedMPH,WindSpeedGustMPH,Humidity,HourlyPrecipIn,Conditions,Clouds,dailyrainin,SolarRadiationWatts/m^2,SoftwareType,DateUTC
2013-03-21 10:30:00,32.0,25.0,-100.00,South,172,2.0,4.0,76,-99.99,,,-99.99,349.000000,,2013-03-21 17:30:00,
2013-03-21 11:22:00,32.0,25.0,-100.00,South,172,2.0,4.0,76,-99.99,,,-99.99,349.000000,,2013-03-21 18:22:00,
2013-03-21 11:30:00,38.0,33.0,-100.00,SSW,204,1.0,4.0,81,-99.99,,,-99.99,487.000000,,2013-03-21 18:30:00,
2013-03-21 12:22:00,38.0,33.0,-100.00,SSW,204,1.0,4.0,81,-99.99,,,-99.99,487.000000,,2013-03-21 19:22:00,
2013-03-21 15:30:00,38.0,33.0,-100.00,West,268,2.0,5.0,80,-99.99,,,-99.99,468.000000,,2013-03-21 22:30:00,
2013-03-21 16:30:00,36.0,32.0,-100.00,West,270,2.0,8.0,84,-99.99,,,-99.99,282.000000,,2013-03-21 23:30:00,
2013-03-21 17:22:00,36.0,32.0,-100.00,West,270,2.0,8.0,84,-99.99,,,-99.99,282.000000,,2013-03-22 00:22:00,
2013-03-21 17:30:00,35.0,31.0,-100.00,WSW,247,2.0,5.0,85,-99.99,,,-99.99,75.000000,,2013-03-22 00:30:00,
2013-03-21 18:22:00,35.0,31.0,-100.00,WSW,247,2.0,5.0,85,-99.99,,,-99.99,75.000000,,2013-03-22 01:22:00,
2013-03-21 18:30:00,34.0,32.0,-100.00,WNW,294,1.0,4.0,92,-99.99,,,-99.99,39.000000,,2013-03-22 01:30:00,
2013-03-21 19:22:00,34.0,32.0,-100.00,WNW,294,1.0,4.0,92,-99.99,,,-99.99,39.000000,,2013-03-22 02:22:00,
2013-03-21 19:30:00,32.0,30.0,-100.00,NNW,339,1.0,2.0,95,-99.99,,,-99.99,1.000000,,2013-03-22 02:30:00,
2013-03-21 20:22:00,32.0,30.0,-100.00,NNW,339,1.0,2.0,95,-99.99,,,-99.99,1.000000,,2013-03-22 03:22:00,
2013-03-21 20:30:00,31.0,30.0,-100.00,NE,40,1.0,3.0,96,-99.99,,,-99.99,0.000000,,2013-03-22 03:30:00,
2013-03-21 21:22:00,31.0,30.0,-100.00,NE,40,1.0,3.0,96,-99.99,,,-99.99,0.000000,,2013-03-22 04:22:00,
2013-03-21 21:30:00,31.0,30.0,-100.00,NE,48,2.0,5.0,96,-99.99,,,-99.99,0.000000,,2013-03-22 04:30:00,
2013-03-21 22:22:00,31.0,30.0,-100.00,NE,48,2.0,5.0,96,-99.99,,,-99.99,0.000000,,2013-03-22 05:22:00,
2013-03-21 22:30:00,31.0,25.0,-100.00,East,84,4.0,6.0,79,-99.99,,,-99.99,0.000000,,2013-03-22 05:30:00,
2013-03-21 23:22:00,31.0,25.0,-100.00,East,84,4.0,6.0,79,-99.99,,,-99.99,0.000000,,2013-03-22 06:22:00,
2013-03-21 23:30:00,31.0,24.0,-100.00,North,351,2.0,4.0,76,-99.99,,,-99.99,0.000000,,2013-03-22 06:30:00,